createdAt,value
2019-05-03T00:02:06.420Z,20.43
2019-05-03T00:04:36.297Z,21.43
2019-05-03T00:07:05.349Z,19.13
2019-05-03T00:09:34.247Z,21.63
2019-05-03T00:12:03.105Z,23.33
2019-05-03T00:14:32.538Z,20.57
2019-05-03T00:17:02.360Z,22.10
2019-05-03T00:19:32.712Z,19.13
2019-05-03T00:22:02.138Z,22.67
2019-05-03T00:24:32.125Z,21.00
2019-05-03T00:27:01.960Z,19.13
2019-05-03T00:29:32.512Z,21.20
2019-05-03T00:32:01.961Z,21.50
2019-05-03T00:34:36.561Z,22.17
2019-05-03T00:37:08.868Z,22.20
2019-05-03T00:39:45.130Z,20.03
2019-05-03T00:42:14.063Z,22.87
2019-05-03T00:44:42.967Z,22.60
2019-05-03T00:47:12.606Z,20.57
2019-05-03T00:49:42.579Z,20.77
2019-05-03T00:52:11.769Z,22.03
2019-05-03T00:54:42.362Z,23.20
2019-05-03T00:57:12.107Z,21.00
2019-05-03T00:59:42.042Z,23.10
2019-05-03T01:02:11.837Z,21.50
2019-05-03T01:04:42.732Z,19.97
2019-05-03T01:07:11.982Z,22.00
2019-05-03T01:09:42.449Z,22.03
2019-05-03T01:12:12.625Z,23.70
2019-05-03T01:14:43.185Z,20.77
2019-05-03T01:17:12.297Z,21.57
2019-05-03T01:19:42.631Z,23.40
2019-05-03T01:22:11.950Z,23.07
2019-05-03T01:24:42.721Z,25.03
2019-05-03T01:27:12.459Z,24.63
2019-05-03T01:29:42.453Z,28.60
2019-05-03T01:32:11.584Z,23.73
2019-05-03T01:34:41.615Z,25.03
2019-05-03T01:37:11.947Z,24.70
2019-05-03T01:39:42.153Z,23.17
2019-05-03T01:42:11.957Z,24.40
2019-05-03T01:44:42.613Z,24.70
2019-05-03T01:47:16.269Z,25.10
2019-05-03T01:49:55.351Z,26.57
2019-05-03T01:52:28.364Z,27.10
2019-05-03T01:54:57.396Z,26.60
2019-05-03T01:57:26.422Z,26.10
2019-05-03T01:59:55.423Z,26.93
2019-05-03T02:03:01.704Z,30.33
2019-05-03T02:05:43.927Z,28.37
2019-05-03T02:08:14.057Z,29.13
2019-05-03T02:10:43.739Z,27.40
2019-05-03T02:13:12.719Z,29.13
2019-05-03T02:15:42.194Z,29.90
2019-05-03T02:18:14.949Z,31.47
2019-05-03T02:20:42.372Z,31.27
2019-05-03T02:23:11.919Z,27.87
2019-05-03T02:25:41.869Z,33.27
2019-05-03T02:28:12.656Z,30.82
2019-05-03T02:30:44.100Z,32.70
2019-05-03T02:33:13.449Z,31.40
2019-05-03T02:35:43.078Z,31.73
2019-05-03T02:38:13.664Z,34.33
2019-05-03T02:40:43.154Z,37.13
2019-05-03T02:43:28.565Z,36.10
2019-05-03T02:46:36.082Z,35.17
2019-05-03T02:49:20.997Z,35.43
2019-05-03T02:51:50.012Z,36.73
2019-05-03T02:54:18.974Z,40.53
2019-05-03T02:56:48.130Z,38.23
2019-05-03T02:59:17.458Z,36.90
2019-05-03T03:01:46.876Z,37.00
2019-05-03T03:04:16.084Z,42.53
2019-05-03T03:06:46.506Z,38.50
2019-05-03T03:09:16.936Z,40.47
2019-05-03T03:11:46.862Z,40.27
2019-05-03T03:14:16.974Z,45.13
2019-05-03T03:16:50.006Z,43.07
2019-05-03T03:19:18.923Z,45.27
2019-05-03T03:21:49.149Z,46.03
2019-05-03T03:24:19.991Z,49.07
2019-05-03T03:26:50.419Z,44.77
2019-05-03T03:29:25.223Z,44.93
2019-05-03T03:32:19.618Z,47.93
2019-05-03T03:35:11.643Z,52.67
2019-05-03T03:37:37.723Z,53.50
2019-05-03T03:40:07.016Z,51.93
2019-05-03T03:42:38.960Z,57.60
2019-05-03T03:45:09.009Z,50.83
2019-05-03T03:47:56.666Z,55.27
2019-05-03T03:50:27.910Z,55.87
2019-05-03T03:52:57.658Z,59.73
2019-05-03T03:55:56.421Z,59.00
2019-05-03T03:58:27.407Z,58.20
2019-05-03T04:00:56.412Z,57.60
2019-05-03T04:03:26.132Z,64.17
2019-05-03T04:06:26.673Z,69.40
2019-05-03T04:08:57.714Z,64.87
2019-05-03T04:11:27.924Z,79.20
2019-05-03T04:13:57.121Z,60.07
2019-05-03T04:16:36.533Z,70.33
2019-05-03T04:19:10.784Z,65.07
2019-05-03T04:21:45.137Z,70.17
2019-05-03T04:24:16.129Z,72.20
2019-05-03T04:26:45.343Z,72.67
2019-05-03T04:29:16.048Z,77.95
2019-05-03T04:31:45.737Z,71.67
2019-05-03T04:34:16.312Z,71.00
2019-05-03T04:36:46.174Z,82.27
2019-05-03T04:39:19.674Z,77.73
2019-05-03T04:41:45.853Z,76.40
2019-05-03T04:44:15.428Z,76.13
2019-05-03T04:46:46.492Z,84.40
2019-05-03T04:49:15.265Z,75.67
2019-05-03T04:51:46.452Z,90.53
2019-05-03T04:54:39.096Z,80.83
2019-05-03T04:57:08.070Z,69.70
2019-05-03T04:59:39.382Z,71.20
2019-05-03T05:02:15.903Z,86.57
2019-05-03T05:04:46.412Z,66.97
2019-05-03T05:07:15.789Z,72.17
2019-05-03T05:09:46.882Z,80.63
2019-05-03T05:12:16.415Z,79.87
2019-05-03T05:14:45.921Z,91.73
2019-05-03T05:17:17.646Z,96.87
2019-05-03T05:19:52.433Z,80.90
2019-05-03T05:22:24.724Z,85.63
2019-05-03T05:24:55.216Z,84.73
2019-05-03T05:27:29.756Z,86.73
2019-05-03T05:30:00.210Z,83.10
2019-05-03T05:32:29.477Z,86.67
2019-05-03T05:34:58.448Z,79.47
2019-05-03T05:37:27.744Z,78.13
2019-05-03T05:39:56.713Z,95.03
2019-05-03T05:42:25.556Z,109.57
2019-05-03T05:44:55.697Z,98.27
2019-05-03T05:47:49.385Z,85.97
2019-05-03T05:50:30.367Z,114.20
2019-05-03T05:52:59.389Z,108.77
2019-05-03T05:55:46.234Z,100.40
2019-05-03T05:58:21.973Z,113.63
2019-05-03T06:01:00.120Z,98.00
2019-05-03T06:03:29.082Z,88.97
2019-05-03T06:06:00.044Z,97.40
2019-05-03T06:08:41.150Z,107.67
2019-05-03T06:11:25.803Z,93.13
2019-05-03T06:14:19.873Z,111.63
2019-05-03T06:16:59.671Z,128.50
2019-05-03T06:19:34.535Z,96.70
2019-05-03T06:22:23.207Z,125.23
2019-05-03T06:24:57.619Z,117.77
2019-05-03T06:27:31.539Z,102.53
2019-05-03T06:30:06.119Z,101.13
2019-05-03T06:32:37.599Z,145.57
2019-05-03T06:35:06.736Z,118.33
2019-05-03T06:37:41.404Z,117.83
2019-05-03T06:40:10.776Z,117.97
2019-05-03T06:42:51.596Z,132.70
2019-05-03T06:45:11.856Z,100.43
2019-05-03T06:47:48.073Z,117.43
2019-05-03T06:50:14.507Z,137.93
2019-05-03T06:52:44.569Z,111.10
2019-05-03T06:55:14.553Z,121.30
2019-05-03T06:57:49.395Z,117.67
2019-05-03T07:00:46.921Z,106.67
2019-05-03T07:03:44.768Z,115.53
2019-05-03T07:06:39.437Z,118.83
2019-05-03T07:09:20.067Z,118.70
2019-05-03T07:11:49.139Z,119.90
2019-05-03T07:14:18.014Z,151.27
2019-05-03T07:16:46.959Z,121.83
2019-05-03T07:19:15.902Z,136.57
2019-05-03T07:21:44.883Z,127.70
2019-05-03T07:24:14.686Z,121.73
2019-05-03T07:26:44.808Z,118.60
2019-05-03T07:29:15.225Z,92.23
2019-05-03T07:31:44.730Z,105.53
2019-05-03T07:34:15.560Z,82.37
2019-05-03T07:36:44.784Z,90.50
2019-05-03T07:39:14.523Z,84.30
2019-05-03T07:41:44.668Z,90.90
2019-05-03T07:44:15.224Z,82.57
2019-05-03T07:46:45.159Z,84.20
2019-05-03T07:49:15.324Z,84.77
2019-05-03T07:51:44.876Z,74.90
2019-05-03T07:54:15.664Z,92.63
2019-05-03T07:56:50.144Z,71.70
2019-05-03T07:59:19.020Z,70.83
2019-05-03T08:01:50.616Z,64.83
2019-05-03T08:04:19.465Z,59.50
2019-05-03T08:06:48.381Z,54.30
2019-05-03T08:09:17.571Z,54.73
2019-05-03T08:11:46.430Z,46.33
2019-05-03T08:14:18.086Z,46.87
2019-05-03T08:16:46.118Z,50.00
2019-05-03T08:19:15.313Z,46.83
2019-05-03T08:21:45.286Z,52.40
2019-05-03T08:24:14.912Z,52.53
2019-05-03T08:26:45.311Z,52.17
2019-05-03T08:29:18.575Z,54.07
2019-05-03T08:32:07.382Z,56.90
2019-05-03T08:34:55.632Z,60.17
2019-05-03T08:37:28.049Z,57.23
2019-05-03T08:39:57.211Z,50.83
2019-05-03T08:42:26.586Z,51.13
2019-05-03T08:44:55.521Z,60.20
2019-05-03T08:47:24.853Z,47.90
2019-05-03T08:49:59.628Z,52.83
2019-05-03T08:52:28.522Z,56.27
2019-05-03T08:54:57.495Z,53.57
2019-05-03T08:57:26.445Z,55.00
2019-05-03T08:59:55.303Z,55.40
2019-05-03T09:02:25.801Z,53.80
2019-05-03T09:04:55.010Z,51.20
2019-05-03T09:07:25.331Z,45.30
2019-05-03T09:10:05.278Z,51.93
2019-05-03T09:12:55.547Z,44.03
2019-05-03T09:15:24.949Z,41.17
2019-05-03T09:17:55.258Z,39.07
2019-05-03T09:20:25.052Z,42.57
2019-05-03T09:22:54.958Z,45.17
2019-05-03T09:25:24.798Z,36.23
2019-05-03T09:27:55.206Z,37.23
2019-05-03T09:30:25.143Z,35.50
2019-05-03T09:32:55.660Z,30.23
2019-05-03T09:35:32.149Z,24.87
2019-05-03T09:37:55.738Z,15.27
2019-05-03T09:40:24.723Z,11.63
2019-05-03T09:42:55.101Z,10.87
2019-05-03T09:45:24.642Z,10.13
2019-05-03T09:47:55.206Z,14.27
2019-05-03T09:50:24.692Z,14.57
2019-05-03T09:52:55.445Z,11.30
2019-05-03T09:55:29.572Z,6.87
2019-05-03T09:57:58.545Z,5.57
2019-05-03T10:00:27.482Z,5.20
2019-05-03T10:02:56.343Z,4.77
2019-05-03T10:05:27.373Z,4.87
2019-05-03T10:07:56.383Z,6.12
2019-05-03T10:10:25.272Z,5.67
2019-05-03T10:12:55.033Z,5.80
2019-05-03T10:15:42.029Z,6.37
2019-05-03T10:18:18.141Z,7.80
2019-05-03T10:20:49.814Z,6.13
2019-05-03T10:23:40.861Z,7.07
2019-05-03T10:26:10.859Z,7.10
2019-05-03T10:28:43.151Z,7.90
2019-05-03T10:31:17.518Z,7.60
2019-05-03T10:34:00.365Z,7.93
2019-05-03T10:36:29.500Z,7.17
2019-05-03T10:39:05.560Z,7.10
2019-05-03T10:41:40.461Z,7.37
2019-05-03T10:44:15.097Z,6.80
2019-05-03T10:46:50.572Z,7.20
2019-05-03T10:49:24.530Z,6.70
2019-05-03T10:52:02.087Z,6.73
2019-05-03T10:54:36.531Z,9.30
2019-05-03T10:57:17.025Z,6.87
2019-05-03T10:59:48.812Z,7.27
2019-05-03T11:02:36.615Z,8.70
2019-05-03T11:05:10.333Z,8.70
2019-05-03T11:07:41.775Z,8.33
2019-05-03T11:10:19.042Z,9.33
2019-05-03T11:12:50.745Z,8.97
2019-05-03T11:15:22.740Z,10.23
2019-05-03T11:17:55.636Z,11.23
2019-05-03T11:20:38.716Z,12.57
2019-05-03T11:23:11.116Z,11.80
2019-05-03T11:25:45.269Z,9.60
2019-05-03T11:28:24.808Z,10.60
2019-05-03T11:31:02.319Z,12.00
2019-05-03T11:33:39.318Z,10.00
2019-05-03T11:36:16.911Z,10.13
2019-05-03T11:38:49.009Z,7.97
2019-05-03T11:41:30.266Z,13.00
2019-05-03T11:43:59.620Z,9.07
2019-05-03T11:46:55.411Z,8.67
2019-05-03T11:49:29.124Z,8.00
2019-05-03T11:52:06.267Z,7.67
2019-05-03T11:54:35.907Z,8.13
2019-05-03T11:57:09.739Z,9.97
2019-05-03T11:59:38.777Z,8.10
2019-05-03T12:02:24.672Z,8.27
2019-05-03T12:04:55.273Z,8.10
2019-05-03T12:07:39.920Z,7.37
2019-05-03T12:10:20.616Z,9.17
2019-05-03T12:12:48.516Z,8.87
2019-05-03T12:15:22.900Z,7.40
2019-05-03T12:17:59.406Z,7.27
2019-05-03T12:20:31.755Z,7.27
2019-05-03T12:23:09.630Z,6.63
2019-05-03T12:25:45.544Z,6.60
2019-05-03T12:28:16.361Z,5.70
2019-05-03T12:30:47.497Z,6.97
2019-05-03T12:33:26.128Z,5.47
2019-05-03T12:35:55.514Z,6.80
2019-05-03T12:38:29.490Z,6.00
2019-05-03T12:41:02.226Z,5.63
2019-05-03T12:43:37.614Z,4.97
2019-05-03T12:46:16.896Z,4.13
2019-05-03T12:48:45.655Z,4.43
2019-05-03T12:51:20.551Z,5.40
2019-05-03T12:53:55.048Z,4.43
2019-05-03T12:56:31.043Z,4.30
2019-05-03T12:59:05.922Z,3.87
2019-05-03T13:02:02.087Z,4.80
2019-05-03T13:04:33.459Z,4.00
2019-05-03T13:07:31.333Z,4.67
2019-05-03T13:10:08.833Z,5.07
2019-05-03T13:12:52.761Z,4.37
2019-05-03T13:15:21.276Z,5.80
2019-05-03T13:17:50.300Z,4.77
2019-05-03T13:20:25.455Z,5.10
2019-05-03T13:22:59.183Z,5.77
2019-05-03T13:25:29.384Z,4.90
2019-05-03T13:28:10.413Z,7.37
2019-05-03T13:30:45.301Z,5.13
2019-05-03T13:33:18.212Z,6.40
2019-05-03T13:35:55.058Z,5.53
2019-05-03T13:38:34.872Z,4.57
2019-05-03T13:41:08.566Z,4.83
2019-05-03T13:43:41.123Z,3.13
2019-05-03T13:46:15.644Z,3.67
2019-05-03T13:48:49.065Z,2.60
2019-05-03T13:51:17.051Z,2.53
2019-05-03T13:53:45.987Z,1.93
2019-05-03T13:56:16.001Z,2.40
2019-05-03T13:58:44.953Z,1.33
2019-05-03T14:01:14.711Z,1.67
2019-05-03T14:03:45.262Z,2.37
2019-05-03T14:06:14.347Z,1.00
2019-05-03T14:08:45.391Z,1.10
2019-05-03T14:11:15.567Z,0.77
2019-05-03T14:13:44.655Z,3.83
2019-05-03T14:16:14.399Z,7.73
2019-05-03T14:18:45.633Z,2.97
2019-05-03T14:21:22.067Z,2.83
2019-05-03T14:24:09.536Z,1.17
2019-05-03T14:26:39.105Z,4.43
2019-05-03T14:29:08.034Z,1.73
2019-05-03T14:31:37.022Z,1.10
2019-05-03T14:34:06.172Z,0.67
2019-05-03T14:36:35.894Z,0.80
2019-05-03T14:39:09.772Z,1.70
2019-05-03T14:41:37.893Z,0.93
2019-05-03T14:44:06.875Z,0.97
2019-05-03T14:46:36.308Z,0.67
2019-05-03T14:49:05.639Z,1.00
2019-05-03T14:51:36.851Z,0.93
2019-05-03T14:54:06.313Z,1.23
2019-05-03T14:56:42.155Z,2.70
2019-05-03T14:59:49.604Z,0.67
2019-05-03T15:02:40.033Z,0.90
2019-05-03T15:04:58.543Z,0.77
2019-05-03T15:07:27.438Z,1.27
2019-05-03T15:09:56.428Z,0.80
2019-05-03T15:12:25.428Z,2.67
2019-05-03T15:14:54.714Z,2.80
2019-05-03T15:17:24.681Z,2.73
2019-05-03T15:19:54.745Z,1.53
2019-05-03T15:22:25.313Z,1.43
2019-05-03T15:24:54.653Z,1.67
2019-05-03T15:27:25.724Z,1.63
2019-05-03T15:29:55.498Z,1.40
2019-05-03T15:32:24.635Z,1.70
2019-05-03T15:34:57.609Z,1.67
2019-05-03T15:37:29.551Z,1.80
2019-05-03T15:39:58.779Z,2.40
2019-05-03T15:42:28.516Z,1.80
2019-05-03T15:45:37.613Z,1.60
2019-05-03T15:48:26.047Z,1.33
2019-05-03T15:50:55.448Z,2.17
2019-05-03T15:53:27.497Z,1.83
2019-05-03T15:55:56.506Z,2.60
2019-05-03T15:58:25.468Z,1.57
2019-05-03T16:00:55.361Z,2.53
2019-05-03T16:03:27.852Z,1.93
2019-05-03T16:05:58.055Z,2.10
2019-05-03T16:08:30.553Z,2.57
2019-05-03T16:10:59.533Z,1.60
2019-05-03T16:13:28.385Z,1.70
2019-05-03T16:15:57.409Z,1.67
2019-05-03T16:18:26.795Z,1.43
2019-05-03T16:20:57.197Z,3.23
2019-05-03T16:23:27.469Z,2.27
2019-05-03T16:25:57.070Z,1.77
2019-05-03T16:28:32.907Z,2.73
2019-05-03T16:31:12.409Z,1.73
2019-05-03T16:33:41.455Z,2.20
2019-05-03T16:36:10.447Z,2.20
2019-05-03T16:38:40.041Z,5.13
2019-05-03T16:41:09.064Z,2.50
2019-05-03T16:43:38.097Z,3.03
2019-05-03T16:46:07.204Z,2.70
2019-05-03T16:48:36.566Z,2.30
2019-05-03T16:51:05.651Z,2.73
2019-05-03T16:53:35.028Z,2.90
2019-05-03T16:56:05.384Z,3.33
2019-05-03T16:58:41.079Z,2.90
2019-05-03T17:01:10.096Z,3.60
2019-05-03T17:03:45.714Z,3.17
2019-05-03T17:06:48.515Z,2.60
2019-05-03T17:09:36.350Z,2.93
2019-05-03T17:12:06.934Z,3.23
2019-05-03T17:14:35.792Z,5.80
2019-05-03T17:17:07.095Z,3.00
2019-05-03T17:19:35.534Z,2.80
2019-05-03T17:22:05.581Z,3.13
2019-05-03T17:24:35.338Z,3.70
2019-05-03T17:27:04.846Z,3.47
2019-05-03T17:29:35.081Z,3.07
2019-05-03T17:32:04.935Z,4.37
2019-05-03T17:34:34.760Z,3.03
2019-05-03T17:37:05.037Z,5.07
2019-05-03T17:39:51.738Z,5.63
2019-05-03T17:42:42.954Z,3.50
2019-05-03T17:45:14.662Z,4.73
2019-05-03T17:47:45.438Z,3.17
2019-05-03T17:50:14.819Z,4.97
2019-05-03T17:52:51.298Z,3.97
2019-05-03T17:55:39.237Z,3.70
2019-05-03T17:58:15.006Z,3.70
2019-05-03T18:01:20.853Z,3.67
2019-05-03T18:04:06.081Z,3.77
2019-05-03T18:06:28.995Z,4.13
2019-05-03T18:09:23.050Z,3.93
2019-05-03T18:11:57.830Z,4.00
2019-05-03T18:14:26.881Z,3.27
2019-05-03T18:16:56.507Z,4.03
2019-05-03T18:19:25.649Z,4.20
2019-05-03T18:21:55.450Z,3.23
2019-05-03T18:24:24.859Z,3.83
2019-05-03T18:26:54.008Z,4.73
2019-05-03T18:29:25.140Z,4.80
2019-05-03T18:31:56.473Z,5.50
2019-05-03T18:34:25.640Z,4.00
2019-05-03T18:36:54.666Z,4.80
2019-05-03T18:39:25.212Z,6.27
2019-05-03T18:41:54.483Z,4.60
2019-05-03T18:44:31.320Z,5.03
2019-05-03T18:47:06.190Z,4.00
2019-05-03T18:49:41.328Z,4.60
2019-05-03T20:56:16.409Z,7.10
2019-05-03T20:58:45.326Z,7.10
2019-05-03T21:01:15.286Z,7.20
2019-05-03T21:03:45.514Z,6.83
2019-05-03T21:06:17.695Z,6.53
2019-05-03T21:08:57.920Z,6.63
2019-05-03T21:11:27.014Z,10.47
2019-05-03T21:13:55.984Z,7.30
2019-05-03T21:16:49.950Z,7.20
2019-05-03T21:19:44.694Z,6.53
2019-05-03T21:22:36.237Z,8.27
2019-05-03T21:25:30.069Z,6.97
2019-05-03T21:27:59.081Z,8.93
2019-05-03T21:30:35.216Z,7.53
2019-05-03T21:33:05.462Z,6.33
2019-05-03T21:35:41.485Z,7.83
2019-05-03T21:38:06.138Z,6.73
2019-05-03T21:40:34.992Z,6.07
2019-05-03T21:43:04.992Z,6.67
2019-05-03T21:45:46.373Z,6.10
2019-05-03T21:48:19.688Z,7.00
2019-05-03T21:50:48.684Z,7.03
2019-05-03T21:53:17.648Z,6.77
2019-05-03T21:55:46.454Z,7.53
2019-05-03T21:58:16.514Z,6.80
2019-05-03T22:01:05.223Z,8.27
2019-05-03T22:03:35.455Z,6.70
2019-05-03T22:06:04.705Z,6.50
2019-05-03T22:08:35.079Z,8.37
2019-05-03T22:11:05.364Z,8.30
2019-05-03T22:13:34.949Z,6.37
2019-05-03T22:16:11.061Z,6.00
2019-05-03T22:18:40.172Z,6.57
2019-05-03T22:21:17.406Z,7.00
2019-05-03T22:24:11.115Z,7.23
2019-05-03T22:27:08.319Z,7.53
2019-05-03T22:29:37.069Z,9.37
2019-05-03T22:32:06.053Z,7.03
2019-05-03T22:34:35.045Z,7.37
2019-05-03T22:37:04.575Z,6.50
2019-05-03T22:39:33.747Z,7.00
2019-05-03T22:42:04.454Z,9.03
2019-05-03T22:44:35.470Z,7.77
2019-05-03T22:47:05.527Z,7.10
2019-05-03T22:49:37.045Z,7.43
2019-05-03T22:52:05.053Z,6.47
2019-05-03T22:54:34.614Z,7.63
2019-05-03T22:57:04.803Z,8.47
2019-05-03T22:59:34.440Z,6.53
2019-05-03T23:02:03.843Z,6.83
2019-05-03T23:04:33.087Z,7.00
2019-05-03T23:07:02.175Z,7.97
2019-05-03T23:09:31.374Z,6.87
2019-05-03T23:12:00.325Z,7.67
2019-05-03T23:14:29.241Z,6.90
2019-05-03T23:16:58.169Z,7.33
2019-05-03T23:19:27.122Z,7.33
2019-05-03T23:22:05.014Z,8.50
2019-05-03T23:24:36.296Z,8.77
2019-05-03T23:27:05.414Z,7.03
2019-05-03T23:29:34.939Z,7.10
2019-05-03T23:32:04.741Z,7.03
2019-05-03T23:34:35.163Z,8.33
2019-05-03T23:37:05.589Z,9.23
2019-05-03T23:39:34.644Z,7.77
2019-05-03T23:42:04.951Z,8.20
2019-05-03T23:44:35.189Z,7.33
2019-05-03T23:47:11.650Z,7.10
2019-05-03T23:49:40.445Z,7.73
2019-05-03T23:52:28.434Z,8.80
2019-05-03T23:55:00.827Z,7.57
2019-05-03T23:57:29.669Z,7.37
2019-05-03T23:59:58.688Z,9.57
